createdAt,value
2019-01-10T06:49:20.638Z,95839.00
2019-01-10T06:56:41.721Z,95843.00
2019-01-10T06:59:13.685Z,95842.00
2019-01-10T07:01:45.600Z,95837.00
2019-01-10T07:04:17.427Z,95846.00
2019-01-10T07:06:49.298Z,95856.00
2019-01-10T07:09:21.142Z,95855.00
2019-01-10T07:11:53.013Z,95862.00
2019-01-10T07:14:24.882Z,95860.00
2019-01-10T07:16:56.757Z,95849.00
2019-01-10T07:19:46.008Z,95859.00
2019-01-10T07:22:19.265Z,95855.00
2019-01-10T07:24:55.774Z,95864.00
2019-01-10T07:27:27.780Z,95859.00
2019-01-10T07:29:59.933Z,95863.00
2019-01-10T07:32:32.396Z,95877.00
2019-01-10T07:35:11.076Z,95875.00
2019-01-10T07:37:45.700Z,95884.00
2019-01-10T07:40:18.809Z,95874.00
2019-01-10T07:42:50.844Z,95888.00
2019-01-10T07:45:29.146Z,95883.00
2019-01-10T07:48:02.726Z,95886.00
2019-01-10T07:50:37.229Z,95888.00
2019-01-10T07:53:10.294Z,95891.00
2019-01-10T07:55:42.427Z,95901.00
2019-01-10T07:58:14.316Z,95902.00
2019-01-10T08:00:46.183Z,95897.00
2019-01-10T08:03:18.033Z,95911.00
2019-01-10T08:05:49.879Z,95910.00
2019-01-10T08:08:21.733Z,95918.00
2019-01-10T08:10:53.850Z,95914.00
2019-01-10T08:13:25.711Z,95922.00
2019-01-10T08:15:57.560Z,95917.00
2019-01-10T08:18:29.445Z,95924.00
2019-01-10T08:21:01.271Z,95920.00
2019-01-10T08:23:33.132Z,95927.00
2019-01-10T08:26:05.099Z,95921.00
2019-01-10T08:28:36.963Z,95929.00
2019-01-10T08:31:08.839Z,95939.00
2019-01-10T08:33:40.723Z,95939.00
2019-01-10T08:36:12.574Z,95941.00
2019-01-10T08:38:44.435Z,95938.00
2019-01-10T08:41:16.277Z,95938.00
2019-01-10T08:43:48.134Z,95942.00
2019-01-10T08:46:19.978Z,95942.00
2019-01-10T08:48:51.846Z,95954.00
2019-01-10T08:51:23.711Z,95960.00
2019-01-10T08:53:55.563Z,95959.00
2019-01-10T08:56:27.407Z,95964.00
2019-01-10T08:58:59.277Z,95963.00
2019-01-10T09:01:31.109Z,95971.00
2019-01-10T09:04:03.004Z,95960.00
2019-01-10T09:06:34.838Z,95966.00
2019-01-10T09:09:09.796Z,95970.00
2019-01-10T09:11:41.631Z,95972.00
2019-01-10T09:14:13.491Z,95972.00
2019-01-10T09:16:45.337Z,95974.00
2019-01-10T09:19:17.189Z,95983.00
2019-01-10T09:21:49.895Z,95979.00
2019-01-10T09:24:21.768Z,95993.00
2019-01-10T09:26:53.600Z,95992.00
2019-01-10T09:29:25.470Z,95999.00
2019-01-10T09:31:57.316Z,96001.00
2019-01-10T09:34:29.181Z,95998.00
2019-01-10T09:37:01.007Z,95992.00
2019-01-10T09:39:32.881Z,95998.00
2019-01-10T09:42:04.720Z,95990.00
2019-01-10T09:44:36.610Z,96000.00
2019-01-10T09:47:08.469Z,96006.00
2019-01-10T09:49:40.323Z,96011.00
2019-01-10T09:52:12.167Z,96011.00
2019-01-10T09:54:44.019Z,96015.00
2019-01-10T09:57:15.864Z,96010.00
2019-01-10T09:59:47.756Z,96019.00
2019-01-10T10:02:19.606Z,96023.00
2019-01-10T10:04:51.473Z,96026.00
2019-01-10T10:07:23.313Z,96022.00
2019-01-10T10:09:55.226Z,96022.00
2019-01-10T10:12:27.066Z,96024.00
2019-01-10T10:14:58.929Z,96025.00
2019-01-10T10:17:30.771Z,96024.00
2019-01-10T10:20:02.722Z,96017.00
2019-01-10T10:22:34.570Z,96028.00
2019-01-10T10:25:06.763Z,96035.00
2019-01-10T10:27:38.640Z,96030.00
2019-01-10T10:30:14.593Z,96029.00
2019-01-10T10:32:46.470Z,96025.00
2019-01-10T10:35:18.656Z,96017.00
2019-01-10T10:37:50.593Z,96027.00
2019-01-10T10:40:23.181Z,96031.00
2019-01-10T10:42:55.195Z,96030.00
2019-01-10T10:45:27.049Z,96029.00
2019-01-10T10:47:58.931Z,96027.00
2019-01-10T10:50:31.173Z,96031.00
2019-01-10T10:53:05.669Z,96039.00
2019-01-10T10:55:37.534Z,96036.00
2019-01-10T10:58:09.395Z,96039.00
2019-01-10T11:00:41.193Z,96034.00
2019-01-10T11:03:13.058Z,96029.00
2019-01-10T11:05:45.178Z,96043.00
2019-01-10T11:08:17.037Z,96040.00
2019-01-10T11:10:48.956Z,96035.00
2019-01-10T11:13:20.822Z,96039.00
2019-01-10T11:15:52.663Z,96046.00
2019-01-10T11:18:24.530Z,96038.00
2019-01-10T12:19:47.305Z,96024.00
2019-01-10T12:22:19.303Z,96030.00
2019-01-10T12:24:51.244Z,96029.00
2019-01-10T12:27:23.655Z,96029.00
2019-01-10T12:29:55.528Z,96039.00
2019-01-10T12:32:27.371Z,96027.00
2019-01-10T12:34:59.271Z,96026.00
2019-01-10T12:37:31.111Z,96026.00
2019-01-10T13:56:30.656Z,96055.00
2019-01-10T14:00:36.724Z,96055.00
2019-01-10T15:22:46.539Z,96129.00
2019-01-10T15:25:31.728Z,96118.00
2019-01-10T15:28:04.107Z,96122.00
2019-01-10T15:30:35.996Z,96131.00
2019-01-10T15:33:07.927Z,96130.00
2019-01-10T15:35:39.778Z,96126.00
2019-01-10T15:38:13.962Z,96136.00
2019-01-10T15:40:45.478Z,96134.00
2019-01-10T15:43:17.420Z,96145.00
2019-01-10T15:45:49.527Z,96146.00
2019-01-10T15:48:21.483Z,96147.00
2019-01-10T15:50:55.076Z,96149.00
2019-01-10T15:53:26.946Z,96151.00
2019-01-10T15:55:58.778Z,96148.00
2019-01-10T15:58:30.645Z,96153.00
2019-01-10T16:01:02.585Z,96148.00
2019-01-10T16:03:34.468Z,96156.00
2019-01-10T16:06:06.510Z,96166.00
2019-01-10T16:08:38.383Z,96165.00
2019-01-10T16:11:10.215Z,96162.00
2019-01-10T16:13:42.107Z,96165.00
2019-01-10T16:16:13.951Z,96166.00
2019-01-10T16:18:45.802Z,96165.00
2019-01-10T16:21:17.657Z,96166.00
2019-01-10T16:23:49.570Z,96168.00
2019-01-10T16:26:21.407Z,96170.00
2019-01-10T16:28:53.304Z,96170.00
2019-01-10T16:31:25.148Z,96166.00
2019-01-10T16:33:57.591Z,96167.00
2019-01-10T16:36:29.555Z,96206.00
2019-01-10T16:39:01.629Z,96186.00
2019-01-10T16:41:33.466Z,96182.00
2019-01-10T16:44:05.587Z,96190.00
2019-01-10T16:46:37.693Z,96181.00
2019-01-10T16:49:09.586Z,96188.00
2019-01-10T16:51:41.420Z,96189.00
2019-01-10T16:54:13.299Z,96199.00
2019-01-10T16:56:45.155Z,96178.00
2019-01-10T16:59:17.143Z,96202.00
2019-01-10T17:01:48.976Z,96193.00
2019-01-10T17:04:20.855Z,96193.00
2019-01-10T17:06:52.694Z,96202.00
2019-01-10T17:09:24.578Z,96209.00
2019-01-10T17:11:56.410Z,96212.00
2019-01-10T17:14:28.442Z,96204.00
2019-01-10T17:17:00.277Z,96215.00
2019-01-10T17:19:32.160Z,96213.00
2019-01-10T17:22:03.998Z,96216.00
2019-01-10T17:24:35.988Z,96213.00
2019-01-10T17:27:07.863Z,96217.00
2019-01-10T17:29:39.750Z,96215.00
2019-01-10T17:32:11.728Z,96228.00
2019-01-10T17:34:43.685Z,96220.00
2019-01-10T17:37:15.531Z,96227.00
2019-01-10T17:39:47.417Z,96229.00
2019-01-10T17:42:19.771Z,96230.00
2019-01-10T17:44:51.701Z,96237.00
2019-01-10T17:47:23.574Z,96233.00
2019-01-10T17:49:56.707Z,96239.00
2019-01-10T17:52:28.566Z,96248.00
2019-01-10T17:55:00.455Z,96247.00
2019-01-10T17:57:32.318Z,96249.00
2019-01-10T18:00:04.947Z,96250.00
2019-01-10T18:02:38.023Z,96256.00
2019-01-10T18:05:10.024Z,96259.00
2019-01-10T18:07:42.052Z,96255.00
2019-01-10T18:10:16.964Z,96261.00
2019-01-10T18:12:48.810Z,96259.00
2019-01-10T18:15:23.247Z,96269.00
2019-01-10T18:17:55.148Z,96266.00
2019-01-10T18:20:36.827Z,96274.00
2019-01-10T18:23:08.740Z,96280.00
2019-01-10T18:25:40.625Z,96280.00
2019-01-10T18:28:13.658Z,96271.00
2019-01-10T19:13:47.957Z,96286.00
2019-01-10T19:16:19.804Z,96291.00
2019-01-10T19:18:51.700Z,96294.00
2019-01-10T19:21:23.579Z,96293.00
2019-01-10T19:23:55.466Z,96292.00
2019-01-10T19:26:27.422Z,96293.00
2019-01-10T19:28:59.515Z,96290.00
2019-01-10T19:31:31.442Z,96294.00
2019-01-10T19:34:03.288Z,96294.00
2019-01-10T19:36:35.179Z,96302.00
2019-01-10T19:39:09.261Z,96301.00
2019-01-10T19:41:41.134Z,96296.00
2019-01-10T19:44:12.986Z,96298.00
2019-01-10T19:46:44.985Z,96305.00
2019-01-10T19:49:16.883Z,96302.00
2019-01-10T19:51:49.245Z,96305.00
2019-01-10T19:54:21.237Z,96311.00
2019-01-10T19:56:53.185Z,96305.00
2019-01-10T19:59:25.023Z,96308.00
2019-01-10T20:01:57.077Z,96312.00
2019-01-10T20:04:29.518Z,96313.00
2019-01-10T20:07:01.407Z,96311.00
2019-01-10T20:09:33.227Z,96318.00
2019-01-10T20:12:05.223Z,96312.00
2019-01-10T20:14:37.205Z,96318.00
2019-01-10T20:17:30.975Z,96312.00
2019-01-10T20:20:03.897Z,96314.00
2019-01-10T20:22:36.513Z,96310.00
2019-01-10T20:25:10.036Z,96309.00
2019-01-10T20:27:41.984Z,96320.00
2019-01-10T20:30:16.560Z,96305.00
2019-01-10T20:32:48.482Z,96317.00
2019-01-10T20:35:20.330Z,96324.00
2019-01-10T20:37:52.706Z,96322.00
2019-01-10T20:40:25.044Z,96324.00
2019-01-10T20:42:56.988Z,96321.00
2019-01-10T20:45:28.837Z,96318.00
2019-01-10T20:48:00.744Z,96313.00
2019-01-10T20:50:32.599Z,96311.00
2019-01-10T20:53:04.936Z,96318.00
2019-01-10T20:55:44.322Z,96325.00
2019-01-10T20:58:12.223Z,96317.00
2019-01-10T21:00:44.161Z,96326.00
2019-01-10T21:03:16.048Z,96321.00
2019-01-10T21:05:49.544Z,96326.00
2019-01-10T21:08:21.411Z,96322.00
2019-01-10T21:10:53.242Z,96331.00
2019-01-10T21:13:25.118Z,96329.00
2019-01-10T21:15:57.757Z,96329.00
2019-01-10T21:18:29.679Z,96330.00
2019-01-10T21:21:01.589Z,96333.00
2019-01-10T21:23:33.528Z,96335.00
2019-01-10T21:26:05.597Z,96343.00
2019-01-10T21:28:37.494Z,96344.00
2019-01-10T21:31:10.894Z,96346.00
2019-01-10T21:33:46.156Z,96339.00
2019-01-10T21:36:18.672Z,96349.00
2019-01-10T21:38:52.693Z,96348.00
2019-01-10T21:41:26.723Z,96341.00
2019-01-10T21:44:03.942Z,96338.00
2019-01-10T21:46:47.938Z,96339.00
2019-01-10T21:49:27.559Z,96345.00
2019-01-10T21:52:23.668Z,96335.00
2019-01-10T21:55:01.800Z,96336.00
2019-01-10T22:01:29.292Z,96341.00
2019-01-10T22:04:16.052Z,96337.00
2019-01-10T22:07:05.212Z,96353.00
2019-01-10T22:09:58.200Z,96350.00
2019-01-10T22:12:45.667Z,96346.00
2019-01-10T22:15:39.307Z,96347.00
2019-01-10T22:18:17.306Z,96344.00
2019-01-10T22:20:52.850Z,96345.00
2019-01-10T22:23:45.582Z,96358.00
2019-01-10T22:26:48.168Z,96351.00
2019-01-10T22:29:48.477Z,96349.00
2019-01-10T22:32:44.328Z,96349.00
2019-01-10T22:35:39.913Z,96339.00
2019-01-10T22:38:48.974Z,96351.00
2019-01-10T22:41:36.775Z,96348.00
2019-01-10T22:44:21.347Z,96353.00
2019-01-10T22:47:32.887Z,96345.00
2019-01-10T22:50:33.608Z,96349.00
2019-01-10T22:53:37.900Z,96341.00
2019-01-10T22:56:30.598Z,96344.00
2019-01-10T22:59:48.280Z,96344.00
2019-01-10T23:05:46.434Z,96346.00
2019-01-10T23:09:04.763Z,96341.00
2019-01-10T23:12:14.916Z,96340.00
2019-01-10T23:15:39.060Z,96344.00
2019-01-10T23:19:22.328Z,96344.00
2019-01-10T23:22:27.447Z,96338.00
2019-01-10T23:25:39.766Z,96337.00
2019-01-10T23:28:48.902Z,96331.00
2019-01-10T23:32:32.921Z,96336.00
2019-01-10T23:36:06.943Z,96339.00
2019-01-10T23:39:42.924Z,96338.00
2019-01-10T23:46:32.143Z,96327.00
2019-01-10T23:49:39.868Z,96335.00
2019-01-10T23:56:32.409Z,96331.00
2019-01-10T23:59:42.120Z,96333.00
